EGHH - Bournemouth Airport
Distance from station: E 5mi, 14km
Updated: 04/24/2018 10:50am
Overcast
Overcast
 Wind from SW
Wind: SW 20 mph , 31 km/h
Temperature: 52°F , 11°C
Dew Point: 52°F , 11°C
Humidity: 100%
Barometer: 29.85 inHg , 1011 hPa
Clouds: Overcast
Visibility: 5 miles , 8 km
Cloud details: Overcast 400 ft
2018/04/24 17:50 EGHH 241750Z 23017KT 8000 OVC004 11/11 Q1011